Keesler Air Force Base Biloxi US
ICAO: KBIX
IATA: BIX
Category: Medium
Scheduled Services: No

Elevation: 33 ft
TransAlt. 18000 ft.

Airport Communications:
GULFPORT APP/DEP:124.6
ATIS:25.6
CLNC DEL:121.8
GND:121.8
AEROMEDICAL EVAC:23.66
PMSV METRO:34.46
403 WG AFRC COMD:25.28
PTD:37.22
TWR:120.75

KBIX Zoom In..

Runways:

(A) RW 03 length 7630 ft width 150 ft
---- / hdg 34

(B) RW 21 length 7630 ft width 150 ft
ILS 109.70 / hdg 214

Location; KBIX
Day. 19 / Time. 19.56 Zulu
* Altimeter: 29.90
* Temperature: 31° c. 87.8°f.
* Wind from: 230° Speed 04 kn.
Dewpoint: 26° c.
Visibility: 10 Statute Miles.
Clouds: Few 14000 ft.

KBIX 191956Z AUTO 23004KT 10SM FEW140 31/26 A2990 RMK AO2 SLP128 T03080260


Wind From 230°
Speed 04 kn.

 
 
jpsmedia.com for Web Design worldairports.se 2018   terms of use